Time;durP1;ratioP1;P1;durP2;ratioP2;P2;SDS_P1;SDS_P2;PMS_P1;PMS_P2;Temp;Humidity;BMP_temperature;BMP_pressure;BME280_temperature;BME280_humidity;BME280_pressure;Samples;Min_cycle;Max_cycle;Signal;HPM_P1;HPM_P2
2022/02/13 00:00:04;;;;;;;;;;;;;;;;;;5028686;28;19963;-71
2022/02/13 00:02:30;;;;;;;;;;;;;;;;;;5028482;28;19996;-70
2022/02/13 00:04:55;;;;;;;;;;;;;;;;;;5029417;28;19999;-71
2022/02/13 00:07:20;;;;;;;;;;;;;;;;;;5028193;28;20380;-70
2022/02/13 00:09:46;;;;;;;;;;;;;;;;;;5029398;28;19913;-72
2022/02/13 00:12:11;;;;;;;;;;;;;;;;;;5029379;28;19917;-71
2022/02/13 00:14:38;;;;;;;;;;;;;;;;;;5029130;28;19924;-71
2022/02/13 00:17:04;;;;;;;;;;;;;;;;;;5029605;28;19909;-72
2022/02/13 00:19:29;;;;;;;;;;;;;;;;;;5029559;28;19962;-72
2022/02/13 00:21:54;;;;;;;;;;;;;;;;;;5029243;28;20006;-68
2022/02/13 00:24:20;;;;;;;;;;;;;;;;;;5027977;28;19936;-71
2022/02/13 00:26:46;;;;;;;;;;;;;;;;;;5027855;28;19909;-71
2022/02/13 00:29:11;;;;;;;;;;;;;;;;;;5029216;28;20332;-69
2022/02/13 00:31:36;;;;;;;;;;;;;;;;;;5028208;28;19913;-70
2022/02/13 00:34:02;;;;;;;;;;;;;;;;;;5028300;28;20287;-70
2022/02/13 00:36:29;;;;;;;;;;;;;;;;;;5027574;28;19913;-70
2022/02/13 00:38:54;;;;;;;;;;;;;;;;;;5029127;28;20348;-71
2022/02/13 00:41:19;;;;;;;;;;;;;;;;;;5031475;28;19987;-69
2022/02/13 00:43:45;;;;;;;;;;;;;;;;;;5031452;28;19913;-71
2022/02/13 00:46:10;;;;;;;;;;;;;;;;;;5031632;28;20330;-71
2022/02/13 00:48:35;;;;;;;;;;;;;;;;;;5033065;28;19909;-71
2022/02/13 00:51:01;;;;;;;;;;;;;;;;;;5032824;28;19919;-70
2022/02/13 00:53:26;;;;;;;;;;;;;;;;;;5033034;28;19992;-70
2022/02/13 00:55:51;;;;;;;;;;;;;;;;;;5033216;28;20332;-70
2022/02/13 00:58:17;;;;;;;;;;;;;;;;;;5031599;28;19936;-71
2022/02/13 01:00:42;;;;;;;;;;;;;;;;;;5032595;28;20023;-71
2022/02/13 01:03:07;;;;;;;;;;;;;;;;;;5032656;28;19920;-72
2022/02/13 01:05:33;;;;;;;;;;;;;;;;;;5031190;28;19912;-70
2022/02/13 01:07:58;;;;;;;;;;;;;;;;;;5032484;28;19994;-70
2022/02/13 01:10:23;;;;;;;;;;;;;;;;;;5032699;28;19920;-70
2022/02/13 01:12:49;;;;;;;;;;;;;;;;;;5032462;28;20011;-72
2022/02/13 01:15:15;;;;;;;;;;;;;;;;;;5032516;28;20395;-73
2022/02/13 01:17:40;;;;;;;;;;;;;;;;;;5032862;28;19916;-70
2022/02/13 01:20:06;;;;;;;;;;;;;;;;;;5032386;28;19913;-69
2022/02/13 01:22:31;;;;;;;;;;;;;;;;;;5032846;28;19909;-70
2022/02/13 01:24:57;;;;;;;;;;;;;;;;;;5030849;28;19916;-70
2022/02/13 01:27:22;;;;;;;;;;;;;;;;;;5031060;28;19996;-69
2022/02/13 01:29:47;;;;;;;;;;;;;;;;;;5030744;28;19916;-70
2022/02/13 01:32:13;;;;;;;;;;;;;;;;;;5032302;28;19970;-72
2022/02/13 01:34:38;;;;;;;;;;;;;;;;;;5030644;28;20357;-72
2022/02/13 01:37:04;;;;;;;;;;;;;;;;;;5030699;28;20014;-71
2022/02/13 01:39:29;;;;;;;;;;;;;;;;;;5030915;28;19980;-70
2022/02/13 01:41:55;;;;;;;;;;;;;;;;;;5030645;28;19921;-70
2022/02/13 01:44:24;;;;;;;;;;;;;;;;;;5025282;28;19961;-72
2022/02/13 01:46:50;;;;;;;;;;;;;;;;;;5011853;28;19948;-71
2022/02/13 01:49:15;;;;;;;;;;;;;;;;;;5012128;28;19976;-70
2022/02/13 01:51:40;;;;;;;;;;;;;;;;;;5010370;28;20001;-71
2022/02/13 01:54:06;;;;;;;;;;;;;;;;;;5026690;28;19909;-71
2022/02/13 01:56:31;;;;;;;;;;;;;;;;;;5010581;28;20000;-71
2022/02/13 01:58:56;;;;;;;;;;;;;;;;;;5012741;28;19910;-71
2022/02/13 02:01:22;;;;;;;;;;;;;;;;;;5010299;28;19913;-70
2022/02/13 02:03:47;;;;;;;;;;;;;;;;;;5011903;28;19956;-69
2022/02/13 02:06:12;;;;;;;;;;;;;;;;;;5011413;28;19909;-71
2022/02/13 02:08:38;;;;;;;;;;;;;;;;;;5010405;28;20257;-71
2022/02/13 02:11:03;;;;;;;;;;;;;;;;;;5011309;28;20178;-71
2022/02/13 02:13:29;;;;;;;;;;;;;;;;;;5011654;28;19913;-72
2022/02/13 02:15:54;;;;;;;;;;;;;;;;;;5026974;28;19916;-70
2022/02/13 02:18:19;;;;;;;;;;;;;;;;;;5029889;28;19978;-70
2022/02/13 02:20:45;;;;;;;;;;;;;;;;;;5031377;28;19963;-72
2022/02/13 02:23:10;;;;;;;;;;;;;;;;;;5031291;28;19908;-71
2022/02/13 02:25:35;;;;;;;;;;;;;;;;;;5031035;28;19909;-70
2022/02/13 02:28:01;;;;;;;;;;;;;;;;;;5029311;28;19915;-69
2022/02/13 02:30:27;;;;;;;;;;;;;;;;;;5030265;28;19960;-71
2022/02/13 02:32:52;;;;;;;;;;;;;;;;;;5029522;28;19913;-70
2022/02/13 02:35:18;;;;;;;;;;;;;;;;;;5031214;28;19909;-71
2022/02/13 02:37:43;;;;;;;;;;;;;;;;;;5029365;28;19916;-69
2022/02/13 02:40:09;;;;;;;;;;;;;;;;;;5031030;28;20238;-71
2022/02/13 02:42:34;;;;;;;;;;;;;;;;;;5029464;28;19917;-71
2022/02/13 02:44:59;;;;;;;;;;;;;;;;;;5029175;28;20689;-71
2022/02/13 02:47:25;;;;;;;;;;;;;;;;;;5030657;28;19920;-71
2022/02/13 02:49:51;;;;;;;;;;;;;;;;;;5029392;28;20328;-71
2022/02/13 02:52:18;;;;;;;;;;;;;;;;;;5029541;28;19963;-69
2022/02/13 02:54:43;;;;;;;;;;;;;;;;;;5030751;28;19913;-70
2022/02/13 02:57:09;;;;;;;;;;;;;;;;;;5030486;28;20270;-68
2022/02/13 02:59:34;;;;;;;;;;;;;;;;;;5030352;28;19920;-71
2022/02/13 03:01:59;;;;;;;;;;;;;;;;;;5028596;28;20020;-71
2022/02/13 03:04:25;;;;;;;;;;;;;;;;;;5029935;28;19948;-69
2022/02/13 03:06:50;;;;;;;;;;;;;;;;;;5030233;28;19920;-71
2022/02/13 03:09:15;;;;;;;;;;;;;;;;;;5029130;28;19992;-70
2022/02/13 03:11:41;;;;;;;;;;;;;;;;;;5045564;28;19913;-70
2022/02/13 03:14:06;;;;;;;;;;;;;;;;;;5030183;28;19908;-71
2022/02/13 03:16:31;;;;;;;;;;;;;;;;;;5030152;28;19912;-72
2022/02/13 03:18:57;;;;;;;;;;;;;;;;;;5030234;28;20392;-71
2022/02/13 03:21:22;;;;;;;;;;;;;;;;;;5029163;28;20372;-69
2022/02/13 03:23:47;;;;;;;;;;;;;;;;;;5028889;28;20305;-71
2022/02/13 03:26:13;;;;;;;;;;;;;;;;;;5030377;28;20288;-70
2022/02/13 03:28:38;;;;;;;;;;;;;;;;;;5028720;28;19909;-70
2022/02/13 03:31:04;;;;;;;;;;;;;;;;;;5025070;28;19921;-70
2022/02/13 03:33:29;;;;;;;;;;;;;;;;;;5010683;28;19910;-71
2022/02/13 03:35:55;;;;;;;;;;;;;;;;;;5010044;28;20331;-70
2022/02/13 03:38:20;;;;;;;;;;;;;;;;;;5010189;28;19948;-70
2022/02/13 03:40:51;;;;;;;;;;;;;;;;;;5009908;28;19924;-70
2022/02/13 03:43:17;;;;;;;;;;;;;;;;;;5010189;28;19948;-71
2022/02/13 03:45:43;;;;;;;;;;;;;;;;;;5016349;28;20226;-70
2022/02/13 03:48:08;;;;;;;;;;;;;;;;;;5029503;28;19913;-70
2022/02/13 03:50:34;;;;;;;;;;;;;;;;;;5028203;28;20373;-69
2022/02/13 03:52:59;;;;;;;;;;;;;;;;;;5028106;28;19992;-69
2022/02/13 03:55:25;;;;;;;;;;;;;;;;;;5029764;28;19920;-70
2022/02/13 03:57:51;;;;;;;;;;;;;;;;;;5028240;28;19913;-72
2022/02/13 04:00:18;;;;;;;;;;;;;;;;;;5027924;28;19917;-71
2022/02/13 04:02:44;;;;;;;;;;;;;;;;;;5028269;28;19909;-69
2022/02/13 04:05:10;;;;;;;;;;;;;;;;;;5029629;28;19916;-69
2022/02/13 04:07:36;;;;;;;;;;;;;;;;;;5029563;28;19963;-70
2022/02/13 04:10:02;;;;;;;;;;;;;;;;;;5029543;28;19916;-73
2022/02/13 04:12:27;;;;;;;;;;;;;;;;;;5029046;28;19919;-72
2022/02/13 04:14:53;;;;;;;;;;;;;;;;;;5029083;28;19913;-71
2022/02/13 04:17:19;;;;;;;;;;;;;;;;;;5029342;28;19909;-70
2022/02/13 04:19:44;;;;;;;;;;;;;;;;;;5028268;28;19909;-70
2022/02/13 04:22:10;;;;;;;;;;;;;;;;;;5027762;28;20010;-69
2022/02/13 04:24:35;;;;;;;;;;;;;;;;;;5028060;28;20075;-69
2022/02/13 04:27:01;;;;;;;;;;;;;;;;;;5027595;28;19916;-70
2022/02/13 04:29:26;;;;;;;;;;;;;;;;;;5029166;28;20269;-69
2022/02/13 04:31:52;;;;;;;;;;;;;;;;;;5029184;28;19909;-71
2022/02/13 04:34:17;;;;;;;;;;;;;;;;;;5027731;28;19909;-71
2022/02/13 04:36:42;;;;;;;;;;;;;;;;;;5029049;28;19913;-70
2022/02/13 04:39:08;;;;;;;;;;;;;;;;;;5029142;28;19952;-72
2022/02/13 04:41:34;;;;;;;;;;;;;;;;;;5044523;28;19921;-71
2022/02/13 04:43:59;;;;;;;;;;;;;;;;;;5027386;28;20016;-69
2022/02/13 04:46:25;;;;;;;;;;;;;;;;;;5029391;28;19917;-71
2022/02/13 04:48:50;;;;;;;;;;;;;;;;;;5028408;28;19908;-70
2022/02/13 04:51:15;;;;;;;;;;;;;;;;;;5029299;28;19917;-70
2022/02/13 04:53:41;;;;;;;;;;;;;;;;;;5028166;28;20381;-72
2022/02/13 04:56:06;;;;;;;;;;;;;;;;;;5044606;28;20336;-72
2022/02/13 04:58:32;;;;;;;;;;;;;;;;;;5029912;28;19917;-70
2022/02/13 05:00:58;;;;;;;;;;;;;;;;;;5027318;28;19933;-71
2022/02/13 05:03:24;;;;;;;;;;;;;;;;;;5029587;28;19947;-71
2022/02/13 05:05:51;;;;;;;;;;;;;;;;;;5027767;28;19954;-71
2022/02/13 05:08:17;;;;;;;;;;;;;;;;;;5029290;28;19909;-70
2022/02/13 05:10:42;;;;;;;;;;;;;;;;;;5029222;28;19940;-71
2022/02/13 05:13:07;;;;;;;;;;;;;;;;;;5029104;28;19913;-72
2022/02/13 05:15:33;;;;;;;;;;;;;;;;;;5028020;28;19909;-70
2022/02/13 05:17:58;;;;;;;;;;;;;;;;;;5030192;28;19972;-70
2022/02/13 05:20:24;;;;;;;;;;;;;;;;;;5031716;28;19928;-70
2022/02/13 05:22:49;;;;;;;;;;;;;;;;;;5030629;28;19912;-70
2022/02/13 05:25:14;;;;;;;;;;;;;;;;;;5028524;28;19920;-72
2022/02/13 05:27:40;;;;;;;;;;;;;;;;;;5030384;28;19913;-71
2022/02/13 05:30:05;;;;;;;;;;;;;;;;;;5030692;28;19913;-70
2022/02/13 05:32:31;;;;;;;;;;;;;;;;;;5032150;28;19920;-71
2022/02/13 05:34:56;;;;;;;;;;;;;;;;;;5032060;28;19908;-70
2022/02/13 05:37:22;;;;;;;;;;;;;;;;;;5030552;28;20407;-69
2022/02/13 05:39:47;;;;;;;;;;;;;;;;;;5032261;28;19932;-70
2022/02/13 05:42:12;;;;;;;;;;;;;;;;;;5030370;28;19920;-70
2022/02/13 05:44:39;;;;;;;;;;;;;;;;;;5023537;28;19909;-71
2022/02/13 05:47:04;;;;;;;;;;;;;;;;;;5017453;28;19913;-71
2022/02/13 05:49:30;;;;;;;;;;;;;;;;;;5030551;28;19959;-71
2022/02/13 05:51:55;;;;;;;;;;;;;;;;;;5030603;28;20329;-71
2022/02/13 05:54:20;;;;;;;;;;;;;;;;;;5030578;28;20003;-69
2022/02/13 05:56:46;;;;;;;;;;;;;;;;;;5031816;28;19924;-71
2022/02/13 05:59:15;;;;;;;;;;;;;;;;;;5031766;28;20327;-70
2022/02/13 06:01:41;;;;;;;;;;;;;;;;;;5030050;28;20054;-71
2022/02/13 06:04:06;;;;;;;;;;;;;;;;;;5031462;28;20016;-71
2022/02/13 06:06:32;;;;;;;;;;;;;;;;;;5030569;28;20389;-71
2022/02/13 06:08:57;;;;;;;;;;;;;;;;;;5032008;28;20304;-71
2022/02/13 06:11:22;;;;;;;;;;;;;;;;;;5030332;28;20266;-69
2022/02/13 06:13:47;;;;;;;;;;;;;;;;;;5031706;28;19916;-69
2022/02/13 06:16:13;;;;;;;;;;;;;;;;;;5031400;28;19915;-70
2022/02/13 06:18:38;;;;;;;;;;;;;;;;;;5029933;28;19975;-71
2022/02/13 06:21:04;;;;;;;;;;;;;;;;;;5029860;28;19952;-70
2022/02/13 06:23:29;;;;;;;;;;;;;;;;;;5030427;28;20027;-69
2022/02/13 06:25:55;;;;;;;;;;;;;;;;;;5031733;28;19959;-71
2022/02/13 06:28:20;;;;;;;;;;;;;;;;;;5030039;28;19944;-71
2022/02/13 06:30:46;;;;;;;;;;;;;;;;;;5029827;28;19916;-70
2022/02/13 06:33:14;;;;;;;;;;;;;;;;;;5031109;28;19908;-71
2022/02/13 06:35:39;;;;;;;;;;;;;;;;;;5031667;28;20208;-73
2022/02/13 06:38:09;;;;;;;;;;;;;;;;;;5045179;28;19912;-71
2022/02/13 06:40:34;;;;;;;;;;;;;;;;;;5046148;28;19914;-70
2022/02/13 06:42:59;;;;;;;;;;;;;;;;;;5031146;28;20410;-73
2022/02/13 06:45:25;;;;;;;;;;;;;;;;;;5029799;28;20380;-70
2022/02/13 06:47:52;;;;;;;;;;;;;;;;;;5030633;28;20266;-70
2022/02/13 06:50:18;;;;;;;;;;;;;;;;;;5029407;28;19909;-71
2022/02/13 06:52:44;;;;;;;;;;;;;;;;;;5029480;28;19920;-69
2022/02/13 06:55:09;;;;;;;;;;;;;;;;;;5030593;28;19909;-69
2022/02/13 06:57:42;;;;;;;;;;;;;;;;;;5030879;28;19916;-69
2022/02/13 07:00:07;;;;;;;;;;;;;;;;;;5029244;28;20237;-72
2022/02/13 07:02:33;;;;;;;;;;;;;;;;;;5029339;28;19920;-68
2022/02/13 07:04:58;;;;;;;;;;;;;;;;;;5029829;28;19909;-71
2022/02/13 07:07:23;;;;;;;;;;;;;;;;;;5029370;28;19909;-70
2022/02/13 07:09:49;;;;;;;;;;;;;;;;;;5029347;28;20341;-72
2022/02/13 07:12:14;;;;;;;;;;;;;;;;;;5028774;28;20328;-71
2022/02/13 07:14:40;;;;;;;;;;;;;;;;;;5028963;28;20341;-71
2022/02/13 07:17:06;;;;;;;;;;;;;;;;;;5030038;28;19928;-70
2022/02/13 07:19:32;;;;;;;;;;;;;;;;;;5030118;28;19909;-69
2022/02/13 07:21:57;;;;;;;;;;;;;;;;;;5030366;28;19928;-70
2022/02/13 07:24:23;;;;;;;;;;;;;;;;;;5028850;28;20331;-70
2022/02/13 07:26:48;;;;;;;;;;;;;;;;;;5029043;28;20342;-71
2022/02/13 07:29:14;;;;;;;;;;;;;;;;;;5030018;28;19908;-72
2022/02/13 07:31:39;;;;;;;;;;;;;;;;;;5030120;28;19909;-71
2022/02/13 07:34:05;;;;;;;;;;;;;;;;;;5028144;28;19912;-70
2022/02/13 07:36:31;;;;;;;;;;;;;;;;;;5029726;28;19955;-70
2022/02/13 07:38:57;;;;;;;;;;;;;;;;;;5030129;28;19933;-71
2022/02/13 07:41:25;;;;;;;;;;;;;;;;;;5029782;28;20318;-70
2022/02/13 07:43:51;;;;;;;;;;;;;;;;;;5029942;28;19995;-70
2022/02/13 07:46:17;;;;;;;;;;;;;;;;;;5028199;28;20004;-71
2022/02/13 07:48:42;;;;;;;;;;;;;;;;;;5028087;28;19909;-70
2022/02/13 07:51:09;;;;;;;;;;;;;;;;;;5028772;28;19989;-73
2022/02/13 07:53:35;;;;;;;;;;;;;;;;;;5028870;28;20416;-73
2022/02/13 07:56:00;;;;;;;;;;;;;;;;;;5029842;28;20588;-72
2022/02/13 07:58:30;;;;;;;;;;;;;;;;;;5045322;28;19913;-73
2022/02/13 08:00:55;;;;;;;;;;;;;;;;;;5045169;28;19917;-73
2022/02/13 08:03:21;;;;;;;;;;;;;;;;;;5028068;28;19916;-73
2022/02/13 08:05:46;;;;;;;;;;;;;;;;;;5029807;28;19916;-73
2022/02/13 08:08:12;;;;;;;;;;;;;;;;;;5028428;28;20201;-72
2022/02/13 08:10:38;;;;;;;;;;;;;;;;;;5030182;28;20258;-72
2022/02/13 08:13:03;;;;;;;;;;;;;;;;;;5029967;28;19909;-73
2022/02/13 08:15:29;;;;;;;;;;;;;;;;;;5028472;28;19913;-73
2022/02/13 08:18:04;;;;;;;;;;;;;;;;;;5028701;28;19909;-73
2022/02/13 08:20:30;;;;;;;;;;;;;;;;;;5028446;28;19920;-73
2022/02/13 08:22:55;;;;;;;;;;;;;;;;;;5028772;28;19917;-73
2022/02/13 08:25:20;;;;;;;;;;;;;;;;;;5028276;28;19942;-73
2022/02/13 08:27:46;;;;;;;;;;;;;;;;;;5030008;28;19919;-73
2022/02/13 08:30:11;;;;;;;;;;;;;;;;;;5028476;28;19909;-72
2022/02/13 08:32:37;;;;;;;;;;;;;;;;;;5029904;28;19925;-73
2022/02/13 08:35:02;;;;;;;;;;;;;;;;;;5029603;28;19908;-74
2022/02/13 08:37:27;;;;;;;;;;;;;;;;;;5028080;28;19935;-73
2022/02/13 08:39:53;;;;;;;;;;;;;;;;;;5030035;28;19913;-73
2022/02/13 08:42:18;;;;;;;;;;;;;;;;;;5028105;28;20357;-73
2022/02/13 08:44:44;;;;;;;;;;;;;;;;;;5023504;28;19913;-74
2022/02/13 08:47:09;;;;;;;;;;;;;;;;;;5010335;28;19913;-73
2022/02/13 08:49:34;;;;;;;;;;;;;;;;;;5008669;28;19913;-71
2022/02/13 08:52:00;;;;;;;;;;;;;;;;;;5010052;28;20321;-72
2022/02/13 08:54:25;;;;;;;;;;;;;;;;;;5012702;28;19913;-75
2022/02/13 08:56:50;;;;;;;;;;;;;;;;;;5012669;28;19909;-72
2022/02/13 08:59:16;;;;;;;;;;;;;;;;;;5011070;28;20001;-72
2022/02/13 09:01:43;;;;;;;;;;;;;;;;;;5010560;28;20396;-74
2022/02/13 09:04:08;;;;;;;;;;;;;;;;;;5034992;28;20006;-72
2022/02/13 09:06:34;;;;;;;;;;;;;;;;;;5035035;28;20381;-74
2022/02/13 09:08:59;;;;;;;;;;;;;;;;;;5033368;28;20149;-73
2022/02/13 09:11:24;;;;;;;;;;;;;;;;;;5033279;28;19996;-73
2022/02/13 09:13:53;;;;;;;;;;;;;;;;;;5031906;28;20324;-74
2022/02/13 09:16:18;;;;;;;;;;;;;;;;;;5032712;28;20388;-74
2022/02/13 09:18:44;;;;;;;;;;;;;;;;;;5031519;28;20002;-73
2022/02/13 09:21:09;;;;;;;;;;;;;;;;;;5033370;28;19913;-73
2022/02/13 09:23:36;;;;;;;;;;;;;;;;;;5032569;28;19909;-73
2022/02/13 09:26:02;;;;;;;;;;;;;;;;;;5032535;28;20000;-73
2022/02/13 09:28:27;;;;;;;;;;;;;;;;;;5028842;28;19914;-74
2022/02/13 09:30:53;;;;;;;;;;;;;;;;;;5016967;28;19924;-73
2022/02/13 09:33:19;;;;;;;;;;;;;;;;;;5027039;28;19913;-73
2022/02/13 09:35:45;;;;;;;;;;;;;;;;;;5031541;28;19912;-73
2022/02/13 09:38:15;;;;;;;;;;;;;;;;;;5014669;28;20411;-73
2022/02/13 09:40:41;;;;;;;;;;;;;;;;;;5031613;28;19967;-74
2022/02/13 09:43:06;;;;;;;;;;;;;;;;;;5032599;28;19921;-73
2022/02/13 09:45:31;;;;;;;;;;;;;;;;;;5031996;28;19951;-74
2022/02/13 09:48:00;;;;;;;;;;;;;;;;;;5032556;28;20206;-73
2022/02/13 09:50:27;;;;;;;;;;;;;;;;;;5030646;28;19916;-73
2022/02/13 09:52:56;;;;;;;;;;;;;;;;;;5032403;28;19951;-74
2022/02/13 09:55:22;;;;;;;;;;;;;;;;;;5032067;28;20336;-74
2022/02/13 09:58:03;;;;;;;;;;;;;;;;;;5032182;28;19908;-73
2022/02/13 10:00:47;;;;;;;;;;;;;;;;;;5030924;28;19927;-71
2022/02/13 10:03:20;;;;;;;;;;;;;;;;;;5031071;28;19913;-74
2022/02/13 10:05:46;;;;;;;;;;;;;;;;;;5030134;28;19920;-73
2022/02/13 10:08:12;;;;;;;;;;;;;;;;;;5031873;28;19916;-73
2022/02/13 10:10:37;;;;;;;;;;;;;;;;;;5032429;28;19948;-73
2022/02/13 10:13:04;;;;;;;;;;;;;;;;;;5030622;28;19909;-73
2022/02/13 10:15:33;;;;;;;;;;;;;;;;;;5032037;28;20277;-73
2022/02/13 10:17:58;;;;;;;;;;;;;;;;;;5032060;28;20369;-73
2022/02/13 10:20:28;;;;;;;;;;;;;;;;;;5022906;28;19908;-74
2022/02/13 10:22:53;;;;;;;;;;;;;;;;;;5031973;28;19978;-74
2022/02/13 10:25:18;;;;;;;;;;;;;;;;;;5031646;28;19915;-74
2022/02/13 10:27:48;;;;;;;;;;;;;;;;;;5030665;28;20357;-73
2022/02/13 10:30:32;;;;;;;;;;;;;;;;;;5030068;28;20003;-74
2022/02/13 10:33:12;;;;;;;;;;;;;;;;;;5026274;28;19913;-73
2022/02/13 10:35:38;;;;;;;;;;;;;;;;;;5019856;28;20007;-73
2022/02/13 10:38:03;;;;;;;;;;;;;;;;;;5030343;28;19987;-74
2022/02/13 10:40:29;;;;;;;;;;;;;;;;;;5029536;28;19959;-74
2022/02/13 10:43:09;;;;;;;;;;;;;;;;;;5031573;28;19920;-73
2022/02/13 10:45:35;;;;;;;;;;;;;;;;;;5029709;28;20015;-73
2022/02/13 10:48:02;;;;;;;;;;;;;;;;;;5031145;28;20411;-73
2022/02/13 10:50:28;;;;;;;;;;;;;;;;;;5030839;28;19917;-72
2022/02/13 10:52:56;;;;;;;;;;;;;;;;;;5029711;28;20007;-74
2022/02/13 10:55:21;;;;;;;;;;;;;;;;;;5031091;28;19975;-73
2022/02/13 10:57:47;;;;;;;;;;;;;;;;;;5031202;28;20360;-72
2022/02/13 11:00:14;;;;;;;;;;;;;;;;;;5030948;28;20225;-73
2022/02/13 11:02:40;;;;;;;;;;;;;;;;;;5032720;28;19909;-73
2022/02/13 11:05:08;;;;;;;;;;;;;;;;;;5030913;28;19982;-73
2022/02/13 11:07:37;;;;;;;;;;;;;;;;;;5031252;28;19913;-71
2022/02/13 11:10:04;;;;;;;;;;;;;;;;;;5030196;28;19909;-73
2022/02/13 11:12:29;;;;;;;;;;;;;;;;;;5030696;28;19913;-73
2022/02/13 11:15:13;;;;;;;;;;;;;;;;;;5029346;28;19909;-73
2022/02/13 11:17:39;;;;;;;;;;;;;;;;;;5029122;28;19910;-73
2022/02/13 11:20:05;;;;;;;;;;;;;;;;;;5030285;28;20285;-73
2022/02/13 11:22:32;;;;;;;;;;;;;;;;;;5030325;28;20232;-73
2022/02/13 11:24:58;;;;;;;;;;;;;;;;;;5028568;28;20048;-73
2022/02/13 11:27:25;;;;;;;;;;;;;;;;;;5028844;28;20011;-73
2022/02/13 11:29:51;;;;;;;;;;;;;;;;;;5030173;28;19908;-74
2022/02/13 11:32:36;;;;;;;;;;;;;;;;;;5030010;28;19916;-72
2022/02/13 11:35:04;;;;;;;;;;;;;;;;;;5030327;28;20386;-73
2022/02/13 11:37:40;;;;;;;;;;;;;;;;;;5022687;28;19950;-74
2022/02/13 11:40:05;;;;;;;;;;;;;;;;;;5011067;28;19920;-73
2022/02/13 11:42:40;;;;;;;;;;;;;;;;;;5010161;28;19917;-73
2022/02/13 11:45:17;;;;;;;;;;;;;;;;;;5010431;28;19997;-74
2022/02/13 11:47:42;;;;;;;;;;;;;;;;;;5009024;28;19956;-73
2022/02/13 11:50:09;;;;;;;;;;;;;;;;;;5010319;28;20038;-73
2022/02/13 11:52:55;;;;;;;;;;;;;;;;;;5027672;28;20016;-72
2022/02/13 11:55:20;;;;;;;;;;;;;;;;;;5029847;28;19913;-73
2022/02/13 11:57:57;;;;;;;;;;;;;;;;;;5030479;28;19967;-73
2022/02/13 12:00:54;;;;;;;;;;;;;;;;;;5028340;28;19909;-73
2022/02/13 12:03:20;;;;;;;;;;;;;;;;;;5036549;28;19951;-73
2022/02/13 12:06:11;;;;;;;;;;;;;;;;;;5029686;28;20306;-73
2022/02/13 12:08:37;;;;;;;;;;;;;;;;;;5028338;28;20480;-72
2022/02/13 12:11:06;;;;;;;;;;;;;;;;;;5031670;28;19941;-73
2022/02/13 12:13:35;;;;;;;;;;;;;;;;;;5031901;28;19967;-72
2022/02/13 12:16:01;;;;;;;;;;;;;;;;;;5030211;28;19915;-73
2022/02/13 12:18:27;;;;;;;;;;;;;;;;;;5030460;28;19924;-74
2022/02/13 12:21:00;;;;;;;;;;;;;;;;;;5029084;28;20304;-73
2022/02/13 12:23:26;;;;;;;;;;;;;;;;;;5028150;28;19912;-73
2022/02/13 12:25:51;;;;;;;;;;;;;;;;;;5028756;28;20291;-74
2022/02/13 12:28:18;;;;;;;;;;;;;;;;;;5026298;28;20392;-73
2022/02/13 12:30:51;;;;;;;;;;;;;;;;;;5008278;28;20328;-73
2022/02/13 12:33:18;;;;;;;;;;;;;;;;;;5009014;28;19913;-74
2022/02/13 12:35:44;;;;;;;;;;;;;;;;;;5008378;28;19919;-73
2022/02/13 12:38:09;;;;;;;;;;;;;;;;;;5014025;28;19910;-73
2022/02/13 12:40:43;;;;;;;;;;;;;;;;;;5014022;28;19913;-73
2022/02/13 12:43:17;;;;;;;;;;;;;;;;;;5012797;28;20225;-74
2022/02/13 12:45:42;;;;;;;;;;;;;;;;;;5014079;28;19996;-73
2022/02/13 12:48:09;;;;;;;;;;;;;;;;;;5012625;28;19909;-73
2022/02/13 12:50:37;;;;;;;;;;;;;;;;;;5013624;28;19940;-73
2022/02/13 12:53:07;;;;;;;;;;;;;;;;;;5022349;28;19992;-73
2022/02/13 12:55:33;;;;;;;;;;;;;;;;;;5032052;28;20001;-73
2022/02/13 12:57:59;;;;;;;;;;;;;;;;;;5033369;28;19988;-73
2022/02/13 13:00:28;;;;;;;;;;;;;;;;;;5032801;28;20409;-73
2022/02/13 13:02:55;;;;;;;;;;;;;;;;;;5033267;28;20443;-74
2022/02/13 13:05:30;;;;;;;;;;;;;;;;;;5033162;28;20357;-74
2022/02/13 13:08:18;;;;;;;;;;;;;;;;;;5033094;28;19915;-74
2022/02/13 13:10:48;;;;;;;;;;;;;;;;;;5028954;28;19908;-74
2022/02/13 13:13:14;;;;;;;;;;;;;;;;;;5033097;28;20233;-73
2022/02/13 13:15:53;;;;;;;;;;;;;;;;;;5032031;28;20369;-73
2022/02/13 13:18:31;;;;;;;;;;;;;;;;;;5033409;28;20300;-73
2022/02/13 13:20:57;;;;;;;;;;;;;;;;;;5033260;28;20023;-72
2022/02/13 13:23:22;;;;;;;;;;;;;;;;;;5031282;28;20453;-72
2022/02/13 13:25:49;;;;;;;;;;;;;;;;;;5031282;28;19917;-73
2022/02/13 13:28:16;;;;;;;;;;;;;;;;;;5032979;28;19975;-73
2022/02/13 13:30:42;;;;;;;;;;;;;;;;;;5032209;28;20007;-73
2022/02/13 13:33:08;;;;;;;;;;;;;;;;;;5047851;28;20405;-73
2022/02/13 13:35:33;;;;;;;;;;;;;;;;;;5031563;28;19940;-74
2022/02/13 13:38:00;;;;;;;;;;;;;;;;;;5032716;28;19916;-72
2022/02/13 13:40:26;;;;;;;;;;;;;;;;;;5033915;28;19913;-75
2022/02/13 13:42:53;;;;;;;;;;;;;;;;;;5031886;28;19909;-74
2022/02/13 13:45:32;;;;;;;;;;;;;;;;;;5030990;28;19944;-73
2022/02/13 13:47:57;;;;;;;;;;;;;;;;;;5030251;28;19960;-73
2022/02/13 13:50:33;;;;;;;;;;;;;;;;;;5030640;28;19936;-73
2022/02/13 13:52:59;;;;;;;;;;;;;;;;;;5030834;28;20357;-73
2022/02/13 13:55:24;;;;;;;;;;;;;;;;;;5032262;28;20054;-73
2022/02/13 13:57:50;;;;;;;;;;;;;;;;;;5030793;28;19908;-74
2022/02/13 14:00:15;;;;;;;;;;;;;;;;;;5047373;28;19916;-73
2022/02/13 14:02:51;;;;;;;;;;;;;;;;;;5031602;28;20340;-73
2022/02/13 14:05:17;;;;;;;;;;;;;;;;;;5030410;28;19919;-73
2022/02/13 14:07:43;;;;;;;;;;;;;;;;;;5030386;28;20241;-74
2022/02/13 14:10:08;;;;;;;;;;;;;;;;;;5030132;28;19978;-73
2022/02/13 14:12:34;;;;;;;;;;;;;;;;;;5031698;28;19959;-72
2022/02/13 14:14:59;;;;;;;;;;;;;;;;;;5032059;28;19909;-74
2022/02/13 14:17:26;;;;;;;;;;;;;;;;;;5031770;28;19909;-73
2022/02/13 14:19:53;;;;;;;;;;;;;;;;;;5030492;28;20411;-73
2022/02/13 14:22:18;;;;;;;;;;;;;;;;;;5030314;28;19983;-73
2022/02/13 14:24:44;;;;;;;;;;;;;;;;;;5031152;28;20321;-73
2022/02/13 14:27:09;;;;;;;;;;;;;;;;;;5031403;28;19920;-72
2022/02/13 14:29:34;;;;;;;;;;;;;;;;;;5030022;28;19954;-74
2022/02/13 14:32:03;;;;;;;;;;;;;;;;;;5029351;28;20365;-73
2022/02/13 14:34:28;;;;;;;;;;;;;;;;;;5029882;28;20096;-74
2022/02/13 14:36:55;;;;;;;;;;;;;;;;;;5012057;28;20311;-73
2022/02/13 14:39:20;;;;;;;;;;;;;;;;;;5020131;28;19916;-74
2022/02/13 14:41:46;;;;;;;;;;;;;;;;;;5011820;28;20273;-73
2022/02/13 14:44:11;;;;;;;;;;;;;;;;;;5027266;28;19909;-73
2022/02/13 14:46:36;;;;;;;;;;;;;;;;;;5010301;28;19917;-75
2022/02/13 14:49:02;;;;;;;;;;;;;;;;;;5010474;28;19925;-73
2022/02/13 14:51:28;;;;;;;;;;;;;;;;;;5011180;28;19913;-74
2022/02/13 14:53:54;;;;;;;;;;;;;;;;;;5025721;28;19909;-74
2022/02/13 14:56:20;;;;;;;;;;;;;;;;;;5011116;28;19913;-72
2022/02/13 14:58:45;;;;;;;;;;;;;;;;;;5006828;28;20427;-72
2022/02/13 15:01:10;;;;;;;;;;;;;;;;;;5045261;28;19917;-73
2022/02/13 15:03:38;;;;;;;;;;;;;;;;;;5029226;28;20368;-73
2022/02/13 15:06:04;;;;;;;;;;;;;;;;;;5031013;28;19944;-73
2022/02/13 15:08:30;;;;;;;;;;;;;;;;;;5029146;28;19979;-73
2022/02/13 15:10:58;;;;;;;;;;;;;;;;;;5045940;28;19909;-74
2022/02/13 15:13:23;;;;;;;;;;;;;;;;;;5030579;28;19952;-73
2022/02/13 15:15:49;;;;;;;;;;;;;;;;;;5031263;28;19936;-74
2022/02/13 15:18:15;;;;;;;;;;;;;;;;;;5030293;28;19959;-74
2022/02/13 15:20:40;;;;;;;;;;;;;;;;;;5028790;28;19917;-73
2022/02/13 15:23:06;;;;;;;;;;;;;;;;;;5030767;28;20281;-73
2022/02/13 15:25:32;;;;;;;;;;;;;;;;;;5028961;28;19996;-74
2022/02/13 15:27:57;;;;;;;;;;;;;;;;;;5028846;28;20426;-73
2022/02/13 15:30:23;;;;;;;;;;;;;;;;;;5029223;28;19916;-74
2022/02/13 15:32:50;;;;;;;;;;;;;;;;;;5030534;28;19913;-73
2022/02/13 15:35:16;;;;;;;;;;;;;;;;;;5029487;28;19909;-74
2022/02/13 15:37:43;;;;;;;;;;;;;;;;;;5028522;28;19952;-72
2022/02/13 15:40:09;;;;;;;;;;;;;;;;;;5028694;28;20147;-73
2022/02/13 15:42:35;;;;;;;;;;;;;;;;;;5029776;28;20361;-73
2022/02/13 15:45:00;;;;;;;;;;;;;;;;;;5029722;28;19913;-74
2022/02/13 15:47:26;;;;;;;;;;;;;;;;;;5028564;28;19949;-72
2022/02/13 15:49:51;;;;;;;;;;;;;;;;;;5045108;28;20024;-73
2022/02/13 15:52:17;;;;;;;;;;;;;;;;;;5031071;28;20439;-72
2022/02/13 15:54:43;;;;;;;;;;;;;;;;;;5029708;28;19964;-74
2022/02/13 15:57:09;;;;;;;;;;;;;;;;;;5029270;28;19941;-74
2022/02/13 15:59:36;;;;;;;;;;;;;;;;;;5029240;28;19931;-73
2022/02/13 16:02:02;;;;;;;;;;;;;;;;;;5029464;28;19919;-73
2022/02/13 16:04:27;;;;;;;;;;;;;;;;;;5030957;28;19909;-73
2022/02/13 16:06:53;;;;;;;;;;;;;;;;;;5029388;28;20369;-73
2022/02/13 16:09:18;;;;;;;;;;;;;;;;;;5028916;28;19909;-73
2022/02/13 16:11:43;;;;;;;;;;;;;;;;;;5030162;28;19947;-73
2022/02/13 16:14:09;;;;;;;;;;;;;;;;;;5029626;28;19916;-74
2022/02/13 16:16:34;;;;;;;;;;;;;;;;;;5029101;28;19909;-74
2022/02/13 16:18:59;;;;;;;;;;;;;;;;;;5030175;28;19916;-74
2022/02/13 16:21:25;;;;;;;;;;;;;;;;;;5028946;28;19960;-73
2022/02/13 16:24:03;;;;;;;;;;;;;;;;;;5028573;28;19943;-72
2022/02/13 16:26:29;;;;;;;;;;;;;;;;;;5030030;28;20004;-73
2022/02/13 16:28:55;;;;;;;;;;;;;;;;;;5028350;28;19959;-73
2022/02/13 16:31:20;;;;;;;;;;;;;;;;;;5028736;28;19909;-74
2022/02/13 16:33:46;;;;;;;;;;;;;;;;;;5030121;28;19909;-73
2022/02/13 16:36:12;;;;;;;;;;;;;;;;;;5029555;28;19909;-74
2022/02/13 16:38:38;;;;;;;;;;;;;;;;;;5030685;28;19913;-73
2022/02/13 16:41:06;;;;;;;;;;;;;;;;;;5030961;28;19939;-72